Time;durP1;ratioP1;P1;durP2;ratioP2;P2;SDS_P1;SDS_P2;PMS_P1;PMS_P2;Temp;Humidity;BMP_temperature;BMP_pressure;BME280_temperature;BME280_humidity;BME280_pressure;Samples;Min_cycle;Max_cycle;Signal;HPM_P1;HPM_P2
2022/08/08 00:01:34;;;;;;;1.30;0.90;;;18.30;77.00;;;18.72;72.98;101650.34;5145394;28;20070;-67
2022/08/08 00:04:22;;;;;;;0.77;0.77;;;18.30;77.40;;;18.68;73.50;101649.38;5145311;28;20050;-66
2022/08/08 00:07:06;;;;;;;1.00;0.80;;;18.20;78.00;;;18.64;73.92;101651.03;5145212;28;20125;-66
2022/08/08 00:09:53;;;;;;;1.88;1.20;;;18.20;78.30;;;18.59;73.46;101655.38;5145144;28;20472;-67
2022/08/08 00:12:35;;;;;;;1.33;1.23;;;18.10;78.30;;;18.53;73.94;101650.00;5145060;28;20464;-66
2022/08/08 00:15:15;;;;;;;0.70;0.70;;;18.10;78.80;;;18.49;74.46;101655.22;5127811;28;20529;-66
2022/08/08 00:17:52;;;;;;;1.00;0.90;;;18.10;79.30;;;18.45;74.93;101651.63;5127437;28;20158;-67
2022/08/08 00:20:33;;;;;;;0.63;0.63;;;18.00;79.90;;;18.40;75.54;101648.03;5144996;28;20051;-67
2022/08/08 00:23:15;;;;;;;1.17;1.08;;;18.00;80.50;;;18.32;75.88;101642.66;5145015;28;20407;-67
2022/08/08 00:25:54;;;;;;;0.80;0.80;;;17.90;80.80;;;18.30;76.28;101649.63;5127481;28;20054;-67
2022/08/08 00:28:32;;;;;;;1.02;0.80;;;17.90;81.40;;;18.29;76.56;101646.97;5144926;28;20582;-66
2022/08/08 00:31:15;;;;;;;1.20;1.10;;;17.80;81.80;;;18.23;76.74;101644.22;5144774;28;20440;-66
2022/08/08 00:35:09;;;;;;;1.02;0.90;;;17.80;82.10;;;18.17;77.00;101645.00;5143423;28;20042;-67
2022/08/08 00:36:57;;;;;;;2.08;1.20;;;17.70;82.50;;;18.10;77.36;101644.00;5127061;28;20043;-66
2022/08/08 00:39:41;;;;;;;1.42;0.80;;;17.70;83.00;;;18.05;77.76;101645.66;5144791;28;20500;-66
2022/08/08 00:42:48;;;;;;;1.17;0.90;;;17.60;83.50;;;17.99;77.83;101652.59;5143426;28;20043;-65
2022/08/08 00:45:56;;;;;;;1.35;1.00;;;17.60;83.80;;;17.91;78.17;101644.53;5127474;28;20047;-67
2022/08/08 00:49:55;;;;;;;1.13;1.00;;;17.50;84.30;;;17.85;78.70;101647.06;5143449;28;20120;-67
2022/08/08 00:52:49;;;;;;;0.88;0.88;;;17.50;85.00;;;17.82;78.86;101647.03;4983433;29;20053;-66
2022/08/08 00:56:40;;;;;;;1.30;1.02;;;17.40;85.60;;;17.76;79.33;101647.78;5083258;29;20052;-67
2022/08/08 01:00:04;;;;;;;1.27;0.93;;;17.40;86.10;;;17.70;79.71;101644.13;5097798;28;20102;-66
2022/08/08 01:03:23;;;;;;;1.08;0.90;;;17.30;86.80;;;17.63;80.06;101649.28;5108578;28;20133;-67
2022/08/08 01:06:32;;;;;;;2.22;1.50;;;17.30;87.30;;;17.59;80.38;101654.44;5131217;28;20089;-67
2022/08/08 01:09:45;;;;;;;1.75;1.08;;;17.20;87.90;;;17.53;80.80;101651.69;5139000;28;20047;-66
2022/08/08 01:13:21;;;;;;;1.73;1.02;;;17.10;88.50;;;17.49;80.94;101648.13;5118838;28;20504;-66
2022/08/08 01:16:55;;;;;;;1.48;1.00;;;17.10;88.90;;;17.45;80.93;101645.38;5147199;28;20050;-66
2022/08/08 01:20:29;;;;;;;1.15;1.00;;;17.10;89.40;;;17.40;81.17;101652.28;5117780;28;20055;-68
2022/08/08 01:23:25;;;;;;;1.80;1.15;;;17.00;89.90;;;17.34;81.41;101642.50;5130667;28;20142;-66
2022/08/08 01:26:44;;;;;;;2.15;1.45;;;16.90;90.10;;;17.29;81.81;101644.19;5130810;28;20473;-65
2022/08/08 01:29:40;;;;;;;1.33;1.17;;;16.90;90.40;;;17.26;82.18;101650.25;5141380;28;20063;-67
2022/08/08 01:33:24;;;;;;;1.48;1.02;;;16.90;90.70;;;17.23;82.46;101649.31;5147990;28;20129;-66
2022/08/08 01:36:40;;;;;;;1.55;1.02;;;16.80;90.90;;;17.17;82.58;101649.19;5130736;28;20047;-66
2022/08/08 01:39:30;;;;;;;2.03;1.10;;;16.80;91.20;;;17.11;82.71;101649.06;5146784;28;20141;-67
2022/08/08 01:42:24;;;;;;;1.30;1.20;;;16.70;91.30;;;17.04;83.21;101640.13;5130773;28;20054;-66
2022/08/08 01:45:17;;;;;;;1.80;1.30;;;16.70;91.60;;;17.01;83.33;101638.31;5130650;28;20058;-66
2022/08/08 01:48:05;;;;;;;1.25;1.10;;;16.60;91.80;;;16.97;83.70;101640.88;5130283;28;20047;-66
2022/08/08 01:51:10;;;;;;;1.35;1.25;;;16.60;92.10;;;16.93;83.83;101629.34;5130223;28;20066;-66
2022/08/08 01:53:54;;;;;;;1.50;1.10;;;16.60;92.30;;;16.90;83.75;101641.59;5147605;28;20143;-66
2022/08/08 01:56:40;;;;;;;2.60;1.00;;;16.50;92.30;;;16.86;83.97;101637.09;5130200;28;20059;-67
2022/08/08 01:59:36;;;;;;;2.45;1.13;;;16.50;92.50;;;16.81;84.38;101644.88;5130220;28;20051;-67
2022/08/08 02:02:21;;;;;;;2.15;1.23;;;16.40;92.70;;;16.78;84.65;101639.56;5130048;28;20042;-67
2022/08/08 02:05:07;;;;;;;2.28;1.15;;;16.40;93.00;;;16.76;84.56;101639.53;5130107;28;20058;-66
2022/08/08 02:07:57;;;;;;;1.75;1.20;;;16.40;93.10;;;16.76;84.51;101636.00;5129939;28;20603;-66
2022/08/08 02:10:46;;;;;;;1.75;1.10;;;16.40;93.20;;;16.75;84.43;101642.09;5129969;28;20046;-68
2022/08/08 02:13:38;;;;;;;1.52;1.30;;;16.40;93.30;;;16.74;84.42;101642.97;5146349;28;20055;-67
2022/08/08 02:16:21;;;;;;;1.92;1.20;;;16.40;93.40;;;16.72;84.46;101631.53;5129858;28;20047;-67
2022/08/08 02:19:01;;;;;;;1.20;1.10;;;16.40;93.50;;;16.68;84.45;101638.41;5130016;28;20141;-67
2022/08/08 02:24:45;;;;;;;1.42;1.20;;;16.30;93.70;;;16.63;84.71;101644.44;5130046;28;20042;-66
2022/08/08 02:27:28;;;;;;;1.50;1.30;;;16.30;93.80;;;16.59;84.71;101643.47;5145586;28;20138;-66
2022/08/08 02:30:08;;;;;;;1.70;1.60;;;16.20;93.90;;;16.57;85.06;101644.31;5129736;28;20424;-67
2022/08/08 02:33:10;;;;;;;1.58;1.00;;;16.20;94.40;;;16.53;85.10;101646.84;5129584;28;20046;-67
2022/08/08 02:36:24;;;;;;;1.73;1.63;;;16.20;94.20;;;16.50;85.26;101653.78;5129599;28;20397;-66
2022/08/08 02:39:26;;;;;;;1.25;1.15;;;16.10;94.30;;;16.45;85.48;101650.16;5065478;29;20148;-67
2022/08/08 02:42:52;;;;;;;1.08;1.00;;;16.10;94.50;;;16.41;85.87;101659.69;5129443;28;20105;-67
2022/08/08 02:46:12;;;;;;;1.38;1.10;;;16.10;94.80;;;16.37;86.44;101657.88;5102527;28;20050;-66
2022/08/08 02:49:28;;;;;;;1.92;1.70;;;16.00;95.00;;;16.32;86.75;101662.13;5145331;28;20397;-67
2022/08/08 02:52:41;;;;;;;3.08;1.42;;;16.00;95.30;;;16.26;86.90;101664.59;5129401;28;20053;-66
2022/08/08 02:56:04;;;;;;;1.40;1.30;;;15.90;95.40;;;16.21;87.32;101664.47;5129343;28;20124;-66
2022/08/08 02:59:39;;;;;;;1.45;1.10;;;15.90;95.70;;;16.19;87.00;101662.66;5129216;28;20053;-66
2022/08/08 03:02:59;;;;;;;1.95;1.20;;;15.80;95.80;;;16.16;86.51;101660.81;5128944;28;20507;-65
2022/08/08 03:06:27;;;;;;;1.10;1.05;;;15.80;96.00;;;16.11;87.00;101670.34;5128858;28;20098;-67
2022/08/08 03:09:56;;;;;;;1.30;1.10;;;15.80;95.90;;;16.08;87.18;101664.13;5125464;28;20113;-66
2022/08/08 03:13:06;;;;;;;1.90;1.23;;;15.80;96.20;;;16.08;86.65;101664.13;5129035;28;20055;-66
2022/08/08 03:16:12;;;;;;;2.13;1.90;;;15.70;96.10;;;16.07;86.84;101667.59;5127958;28;20423;-66
2022/08/08 03:19:04;;;;;;;1.90;1.65;;;15.70;96.20;;;16.01;86.85;101663.94;5129172;28;20397;-67
2022/08/08 03:21:36;;;;;;;2.97;1.50;;;15.70;96.30;;;15.96;87.40;101672.56;5127991;28;20046;-66
2022/08/08 03:24:10;;;;;;;1.60;1.27;;;15.60;96.50;;;15.95;87.21;101670.78;5128583;28;20054;-67
2022/08/08 03:26:49;;;;;;;3.08;1.40;;;15.60;96.40;;;15.92;86.76;101682.13;5128589;28;20456;-67
2022/08/08 03:29:28;;;;;;;2.72;1.40;;;15.60;96.40;;;15.86;86.94;101673.19;5128647;28;20508;-67
2022/08/08 03:34:50;;;;;;;1.83;1.63;;;15.50;96.30;;;15.79;86.44;101687.00;5137721;28;20054;-70
2022/08/08 03:37:24;;;;;;;1.60;1.30;;;15.50;96.40;;;15.76;86.44;101687.78;5128596;28;20043;-70
2022/08/08 03:40:00;;;;;;;2.20;1.85;;;15.50;96.50;;;15.74;86.49;101684.25;5128684;28;20487;-70
2022/08/08 03:42:33;;;;;;;2.42;1.70;;;15.40;96.50;;;15.68;86.97;101674.44;5128925;28;20162;-69
2022/08/08 03:45:16;;;;;;;1.50;1.30;;;15.40;96.70;;;15.63;87.53;101675.16;5128492;28;20049;-69
2022/08/08 03:47:56;;;;;;;2.13;1.50;;;15.30;96.90;;;15.60;87.97;101677.69;5128427;28;20050;-70
2022/08/08 03:50:29;;;;;;;1.77;1.30;;;15.30;97.20;;;15.55;88.02;101676.66;5128554;28;20079;-69
2022/08/08 03:53:07;;;;;;;2.30;1.40;;;15.30;97.20;;;15.56;87.68;101681.06;5128245;28;20049;-70
2022/08/08 03:55:44;;;;;;;2.30;1.63;;;15.20;97.20;;;15.57;87.72;101682.84;5128341;28;20142;-71
2022/08/08 03:58:22;;;;;;;3.05;1.70;;;15.30;97.30;;;15.57;87.90;101680.22;5128331;28;20042;-69
2022/08/08 04:00:59;;;;;;;2.00;1.55;;;15.20;97.40;;;15.53;88.52;101687.13;5128182;28;20046;-70
2022/08/08 04:03:35;;;;;;;1.50;1.40;;;15.30;97.70;;;15.52;88.54;101697.56;5127965;28;20189;-70
2022/08/08 04:06:09;;;;;;;2.10;1.30;;;15.20;97.80;;;15.48;89.22;101696.59;5127747;28;20050;-70
2022/08/08 04:08:42;;;;;;;2.70;1.88;;;15.10;98.00;;;15.44;89.48;101692.09;5128155;28;20501;-71
2022/08/08 04:11:26;;;;;;;1.75;1.40;;;15.20;98.20;;;15.40;89.75;101696.38;5128203;28;20059;-70
2022/08/08 04:13:58;;;;;;;2.20;1.48;;;15.10;98.40;;;15.38;90.53;101697.16;5127957;28;20070;-70
2022/08/08 04:16:31;;;;;;;2.78;1.52;;;15.10;98.60;;;15.33;90.70;101704.06;5127887;28;20058;-73
2022/08/08 04:19:03;;;;;;;2.15;1.48;;;15.10;98.70;;;15.30;91.35;101685.56;5127867;28;20062;-69
2022/08/08 04:21:37;;;;;;;2.28;1.50;;;15.00;99.00;;;15.31;91.65;101708.34;5127960;28;20042;-70
2022/08/08 04:24:09;;;;;;;2.25;1.20;;;15.00;99.30;;;15.31;91.85;101703.97;5127882;28;20130;-70
2022/08/08 04:26:43;;;;;;;3.20;1.63;;;15.00;99.40;;;15.28;91.92;101698.66;5144852;28;20050;-71
2022/08/08 04:29:15;;;;;;;1.75;1.35;;;15.00;99.50;;;15.29;92.33;101705.69;5127876;28;20507;-71
2022/08/08 04:31:47;;;;;;;2.95;1.67;;;15.00;99.60;;;15.29;92.48;101704.78;5127685;28;20466;-71
2022/08/08 04:34:19;;;;;;;2.50;1.60;;;15.00;99.80;;;15.28;92.51;101709.16;5127740;28;20130;-70
2022/08/08 04:36:52;;;;;;;2.20;1.70;;;15.00;99.90;;;15.32;92.76;101711.03;5144997;28;20050;-70
2022/08/08 04:39:24;;;;;;;2.75;1.30;;;15.00;99.90;;;15.36;92.82;101718.16;5127679;28;20043;-70
2022/08/08 04:41:58;;;;;;;2.25;1.70;;;15.10;99.90;;;15.39;92.59;101707.75;5127498;28;20058;-71
2022/08/08 04:44:30;;;;;;;3.00;1.55;;;15.10;99.90;;;15.43;92.17;101708.72;5127559;28;20041;-71
2022/08/08 04:47:03;;;;;;;1.88;1.42;;;15.10;99.90;;;15.47;92.31;101707.97;5127420;28;20047;-71
2022/08/08 04:49:35;;;;;;;2.85;1.65;;;15.20;99.90;;;15.68;92.29;101712.97;5127539;28;20049;-70
2022/08/08 04:52:07;;;;;;;1.77;1.40;;;15.30;99.90;;;16.18;91.53;101716.13;5127307;28;20054;-70
2022/08/08 04:54:39;;;;;;;2.15;1.45;;;15.60;99.90;;;16.60;89.34;101720.69;5127611;28;20041;-70
2022/08/08 04:57:13;;;;;;;2.03;1.55;;;16.00;99.60;;;16.72;88.01;101721.91;5127300;28;20054;-70
2022/08/08 04:59:45;;;;;;;2.28;1.48;;;16.20;98.90;;;16.68;87.69;101727.03;5127551;28;20143;-70
2022/08/08 05:02:18;;;;;;;2.63;1.77;;;16.20;98.50;;;16.60;87.66;101718.94;5127496;28;20055;-70
2022/08/08 05:04:50;;;;;;;2.17;1.58;;;16.20;98.30;;;16.57;87.38;101721.53;5127456;28;20047;-70
2022/08/08 05:07:23;;;;;;;2.92;1.40;;;16.20;98.20;;;16.68;87.26;101737.56;5127179;28;20443;-70
2022/08/08 05:09:55;;;;;;;2.83;1.63;;;16.30;98.20;;;16.66;87.26;101740.16;5144706;28;20463;-71
2022/08/08 05:12:29;;;;;;;1.67;1.40;;;16.30;98.10;;;16.60;87.26;101734.75;5127442;28;20062;-70
2022/08/08 05:15:01;;;;;;;3.25;2.00;;;16.30;98.00;;;16.63;87.29;101733.94;5127463;28;20047;-70
2022/08/08 05:17:34;;;;;;;2.42;1.60;;;16.30;98.00;;;16.98;87.01;101727.81;5127167;28;20086;-70
2022/08/08 05:20:09;;;;;;;2.58;1.60;;;16.50;98.30;;;18.50;84.30;101738.81;5127362;28;20039;-70
2022/08/08 05:22:45;;;;;;;2.67;1.92;;;17.30;98.60;;;20.55;76.00;101742.50;5127385;28;20062;-70
2022/08/08 05:25:17;;;;;;;2.00;1.63;;;18.70;96.50;;;22.09;69.33;101739.88;5127369;28;20043;-70
2022/08/08 05:27:52;;;;;;;3.47;1.42;;;20.10;93.50;;;23.49;63.85;101739.84;5127061;28;20507;-70
2022/08/08 05:30:24;;;;;;;2.60;1.23;;;21.40;90.40;;;24.73;59.59;101746.25;5127211;28;20117;-70
2022/08/08 05:32:56;;;;;;;2.50;1.50;;;22.50;84.20;;;25.55;56.51;101745.41;5127107;28;20074;-70
2022/08/08 05:35:30;;;;;;;2.83;1.52;;;23.40;78.40;;;26.30;53.99;101756.91;5127228;28;20046;-70
2022/08/08 05:38:06;;;;;;;1.88;1.45;;;24.20;73.90;;;26.93;51.68;101754.09;5127768;28;20057;-70
2022/08/08 05:41:00;;;;;;;3.45;1.55;;;24.80;69.90;;;27.76;49.99;101761.44;5147591;28;20057;-71
2022/08/08 05:43:40;;;;;;;5.47;1.90;;;25.50;67.10;;;28.74;48.32;101762.75;5130743;28;20439;-70
2022/08/08 05:46:15;;;;;;;2.60;1.33;;;26.40;64.80;;;29.60;46.18;101765.84;5130610;28;20154;-70
2022/08/08 05:48:48;;;;;;;3.15;1.50;;;27.20;62.00;;;30.32;45.11;101769.94;5130621;28;20415;-71
2022/08/08 05:51:21;;;;;;;1.85;1.30;;;27.80;59.90;;;30.92;43.98;101774.25;5147976;28;20050;-70
2022/08/08 05:53:57;;;;;;;3.95;1.58;;;28.50;58.30;;;31.46;42.98;101777.75;5130597;28;20061;-71
2022/08/08 05:56:31;;;;;;;2.55;1.50;;;29.00;56.80;;;32.11;41.82;101772.53;5130374;28;20056;-69
2022/08/08 05:59:07;;;;;;;2.38;1.52;;;29.60;55.50;;;32.02;41.53;101774.75;5147938;28;20122;-71
2022/08/08 06:01:42;;;;;;;3.97;1.33;;;29.80;54.30;;;31.71;41.74;101775.00;5147786;28;20066;-71
2022/08/08 06:04:17;;;;;;;8.00;1.55;;;29.60;54.10;;;31.56;42.11;101781.81;5130359;28;20043;-72
2022/08/08 06:06:51;;;;;;;4.03;1.70;;;29.50;54.60;;;31.48;42.17;101786.63;5129928;28;20046;-70
2022/08/08 06:09:31;;;;;;;4.07;1.88;;;29.50;54.00;;;31.27;42.24;101785.59;5130356;28;20566;-70
2022/08/08 06:12:05;;;;;;;4.38;1.63;;;29.40;54.60;;;30.96;42.76;101785.75;5129216;28;20102;-71
2022/08/08 06:14:39;;;;;;;6.28;1.88;;;29.10;54.10;;;30.44;43.57;101784.78;5129997;28;20137;-70
2022/08/08 06:17:12;;;;;;;;;;;28.80;54.60;;;30.22;43.77;101789.97;5146284;28;20050;-71
2022/08/08 06:19:55;;;;;;;9.75;2.08;;;28.60;54.60;;;30.46;44.18;101791.91;5130026;28;19932;-72
2022/08/08 06:22:28;;;;;;;7.80;2.08;;;28.60;55.20;;;31.05;43.55;101797.13;5146304;28;20094;-70
2022/08/08 06:25:03;;;;;;;5.70;1.80;;;28.90;55.20;;;31.44;43.11;101799.34;5146059;28;20098;-56
2022/08/08 06:27:41;;;;;;;8.32;2.03;;;29.30;54.60;;;31.85;42.47;101794.25;5147259;28;20634;-55
2022/08/08 06:30:15;;;;;;;4.45;1.73;;;29.80;54.10;;;32.18;41.99;101796.56;5145961;28;20085;-55
2022/08/08 06:32:53;;;;;;;4.50;1.75;;;30.10;53.40;;;32.57;41.31;101802.22;5145970;28;20070;-56
2022/08/08 06:35:31;;;;;;;6.35;1.88;;;30.50;52.70;;;32.91;40.73;101801.69;5146151;28;20047;-55
2022/08/08 06:38:11;;;;;;;7.05;1.80;;;30.90;52.00;;;32.93;40.61;101802.53;5145710;28;20050;-55
2022/08/08 06:40:44;;;;;;;5.68;2.00;;;31.10;51.50;;;32.84;41.09;101797.47;5145851;28;20547;-56
2022/08/08 06:43:22;;;;;;;3.13;1.60;;;31.00;51.60;;;32.70;41.35;101799.88;5145904;28;20039;-55
2022/08/08 06:46:00;;;;;;;5.40;1.70;;;31.00;51.80;;;32.37;41.59;101797.63;5145474;28;20066;-55
2022/08/08 06:48:34;;;;;;;6.60;1.80;;;30.80;51.80;;;32.21;41.33;101799.13;5144687;28;20385;-57
2022/08/08 06:51:06;;;;;;;;;;;30.60;51.50;;;32.21;41.71;101802.72;5129728;28;20143;-54
2022/08/08 06:53:39;;;;;;;6.32;2.05;;;30.60;51.90;;;32.21;41.52;101801.84;5129418;28;19922;-57
2022/08/08 06:56:11;;;;;;;5.25;1.80;;;30.50;51.70;;;32.46;41.95;101808.03;5129320;28;20085;-56
2022/08/08 06:58:43;;;;;;;4.97;2.20;;;30.70;52.30;;;32.37;41.66;101803.03;5146789;28;20389;-56
2022/08/08 07:01:19;;;;;;;4.75;1.83;;;30.70;51.80;;;31.37;43.16;101805.91;5129276;28;20066;-55
2022/08/08 07:03:53;;;;;;;4.80;2.22;;;30.20;52.50;;;30.18;44.86;101804.44;5146520;28;20042;-56
2022/08/08 07:06:32;;;;;;;5.50;2.22;;;29.30;53.30;;;29.17;46.39;101815.34;5146379;28;20054;-56
2022/08/08 07:09:13;;;;;;;4.10;2.20;;;28.40;54.60;;;28.33;48.02;101810.25;5128576;28;20053;-73
2022/08/08 07:11:50;;;;;;;4.60;1.85;;;27.60;55.60;;;27.70;49.28;101802.63;5129059;28;20047;-73
2022/08/08 07:14:29;;;;;;;3.42;2.03;;;27.00;56.80;;;27.19;50.35;101812.53;5129283;28;20042;-72
2022/08/08 07:17:07;;;;;;;5.10;1.88;;;26.50;57.80;;;26.77;50.79;101813.22;5128481;28;20046;-72
2022/08/08 07:19:43;;;;;;;3.58;1.75;;;26.00;58.30;;;26.45;51.67;101812.81;5126043;28;20142;-73
2022/08/08 07:22:24;;;;;;;4.43;2.17;;;25.70;58.90;;;26.17;52.47;101813.19;5128780;28;20483;-72
2022/08/08 07:25:01;;;;;;;3.53;1.90;;;25.40;59.70;;;26.06;52.80;101820.47;5128995;28;20043;-73
2022/08/08 07:27:40;;;;;;;3.15;1.80;;;25.20;60.20;;;25.93;52.62;101809.06;5128685;28;20043;-73
2022/08/08 07:30:14;;;;;;;3.97;1.95;;;25.10;60.20;;;25.83;53.05;101806.53;5128907;28;20051;-72
2022/08/08 07:32:50;;;;;;;4.10;1.80;;;25.00;60.60;;;25.79;53.48;101812.81;5124689;28;20043;-72
2022/08/08 07:35:23;;;;;;;4.13;1.95;;;24.90;60.90;;;25.89;53.55;101815.34;5128474;28;20043;-73
2022/08/08 07:37:58;;;;;;;3.90;2.00;;;24.90;61.20;;;25.95;53.06;101825.06;5128470;28;20051;-73
2022/08/08 07:40:38;;;;;;;2.92;1.92;;;24.90;61.10;;;25.90;52.72;101810.91;5128675;28;20050;-73
2022/08/08 07:43:14;;;;;;;3.90;1.85;;;24.90;60.80;;;25.88;53.20;101818.03;5127658;28;20559;-71
2022/08/08 07:45:52;;;;;;;2.40;1.55;;;24.90;60.90;;;25.94;52.97;101818.81;5126125;28;20121;-75
2022/08/08 07:48:26;;;;;;;3.10;1.75;;;25.00;61.00;;;26.07;53.05;101824.91;5127743;28;20051;-72
2022/08/08 07:51:01;;;;;;;2.13;1.60;;;25.10;61.00;;;26.10;52.49;101824.00;5126169;28;20504;-71
2022/08/08 07:53:42;;;;;;;;;;;25.10;60.50;;;26.01;52.32;101822.31;5128774;28;20049;-71
2022/08/08 07:56:17;;;;;;;4.00;2.00;;;25.10;60.20;;;26.17;52.90;101821.22;5128146;28;20021;-72
2022/08/08 07:58:51;;;;;;;2.85;1.63;;;25.20;60.90;;;26.50;52.56;101827.03;5128390;28;20043;-67
2022/08/08 08:01:26;;;;;;;5.78;1.92;;;25.40;60.90;;;26.77;51.51;101826.59;5127746;28;20128;-68
2022/08/08 08:04:07;;;;;;;4.82;1.90;;;25.60;60.10;;;26.97;50.94;101831.59;5128448;28;20054;-69
2022/08/08 08:06:42;;;;;;;3.28;1.63;;;25.80;59.60;;;27.21;51.16;101822.31;5128062;28;20047;-68
2022/08/08 08:09:25;;;;;;;4.88;1.92;;;26.00;59.80;;;27.53;50.50;101824.38;5145572;28;20042;-72
2022/08/08 08:12:00;;;;;;;4.25;1.80;;;26.20;59.50;;;27.82;49.48;101828.28;5128299;28;20047;-69
2022/08/08 08:14:49;;;;;;;3.63;1.70;;;26.40;58.90;;;28.12;48.98;101837.50;5127969;28;20101;-71
2022/08/08 08:17:25;;;;;;;2.20;1.60;;;26.50;58.50;;;28.45;48.47;101832.34;5141551;28;20496;-69
2022/08/08 08:20:04;;;;;;;3.15;1.65;;;26.70;58.10;;;28.89;47.54;101826.78;5145228;28;20045;-69
2022/08/08 08:22:36;;;;;;;2.55;1.42;;;27.00;57.80;;;29.46;46.22;101823.50;5127962;28;20611;-72
2022/08/08 08:25:11;;;;;;;2.97;1.42;;;27.40;57.00;;;29.96;44.97;101829.25;5127847;28;20129;-73
2022/08/08 08:27:46;;;;;;;5.65;1.42;;;27.60;56.80;;;30.46;44.25;101826.00;5127602;28;20318;-73
2022/08/08 08:30:18;;;;;;;2.72;1.40;;;27.80;55.60;;;30.96;43.71;101821.63;5127819;28;20047;-72
2022/08/08 08:32:52;;;;;;;2.28;1.35;;;28.10;55.50;;;31.55;42.88;101823.19;5127497;28;20516;-72
2022/08/08 08:35:30;;;;;;;2.20;1.40;;;28.30;55.10;;;32.13;42.12;101816.50;5127604;28;20051;-71
2022/08/08 08:38:03;;;;;;;4.03;1.45;;;28.60;54.70;;;32.81;41.50;101830.00;5127472;28;20076;-71
2022/08/08 08:40:36;;;;;;;1.95;1.35;;;28.90;54.70;;;33.46;40.33;101829.91;5127777;28;20043;-73
2022/08/08 08:43:10;;;;;;;2.13;1.33;;;29.30;53.70;;;34.12;39.31;101829.59;5127612;28;20095;-73
2022/08/08 08:45:43;;;;;;;3.50;1.40;;;29.70;52.90;;;34.84;38.30;101833.34;5127336;28;20051;-72
2022/08/08 08:48:19;;;;;;;2.40;1.20;;;30.30;51.90;;;35.71;37.34;101826.97;5127590;28;20058;-71
2022/08/08 08:50:56;;;;;;;4.50;1.30;;;31.20;51.10;;;36.35;37.02;101833.38;5127589;28;20047;-72
2022/08/08 08:53:35;;;;;;;2.28;1.13;;;31.90;50.60;;;36.67;36.62;101828.81;5144840;28;20062;-72
2022/08/08 08:56:19;;;;;;;6.38;1.65;;;32.40;49.50;;;37.27;35.77;101834.28;5127136;28;20050;-71
2022/08/08 08:58:52;;;;;;;2.38;1.20;;;33.00;48.90;;;37.76;35.21;101825.84;5127700;28;20078;-72
2022/08/08 09:01:34;;;;;;;2.38;1.40;;;33.50;48.00;;;38.16;34.57;101823.28;5127488;28;20058;-73
2022/08/08 09:04:09;;;;;;;2.92;1.20;;;33.90;47.10;;;38.65;33.91;101825.50;5144778;28;20078;-74
2022/08/08 09:06:44;;;;;;;2.65;1.50;;;34.30;46.60;;;39.04;33.62;101833.69;5127252;28;20054;-73
2022/08/08 09:09:21;;;;;;;1.98;1.40;;;34.60;46.20;;;38.70;32.70;101828.78;5127542;28;20078;-72
2022/08/08 09:11:55;;;;;;;2.10;1.20;;;34.60;45.00;;;38.34;33.74;101816.66;5127394;28;20661;-72
2022/08/08 09:14:30;;;;;;;1.92;1.35;;;34.20;45.70;;;38.57;33.91;101827.88;5130532;28;20070;-72
2022/08/08 09:17:04;;;;;;;3.78;1.55;;;34.40;46.00;;;38.65;33.70;101820.03;5131011;28;20054;-71
2022/08/08 09:19:37;;;;;;;1.77;1.20;;;34.60;45.70;;;38.42;33.86;101827.06;5147576;28;20105;-72
2022/08/08 09:22:13;;;;;;;2.00;1.30;;;34.50;46.20;;;38.12;34.06;101824.47;5129619;28;20039;-73
2022/08/08 09:24:45;;;;;;;3.60;1.48;;;34.50;46.00;;;37.59;33.63;101823.28;5131083;28;20050;-73
2022/08/08 09:27:19;;;;;;;2.40;1.33;;;34.40;44.90;;;36.60;34.84;101816.56;5148085;28;20039;-71
2022/08/08 09:29:56;;;;;;;1.85;1.23;;;33.90;45.30;;;36.03;35.71;101817.06;5131129;28;20057;-71
2022/08/08 09:32:37;;;;;;;3.55;1.50;;;33.60;45.90;;;35.26;36.13;101814.88;5130802;28;20055;-74
2022/08/08 09:35:12;;;;;;;2.92;1.30;;;33.20;46.10;;;34.43;37.03;101820.03;5208188;23;20054;-71
2022/08/08 09:37:49;;;;;;;2.95;1.50;;;32.80;46.50;;;33.46;37.57;101807.41;5145974;28;20074;-71
2022/08/08 09:40:29;;;;;;;2.10;1.33;;;32.20;46.70;;;32.71;39.59;101804.31;5148499;28;20060;-73
2022/08/08 09:43:08;;;;;;;6.40;1.98;;;31.60;48.00;;;32.20;40.28;101797.38;5162397;28;20074;-76
2022/08/08 09:45:58;;;;;;;2.88;1.63;;;31.10;48.70;;;31.75;41.00;101793.69;5149113;28;20474;-69
2022/08/08 09:48:32;;;;;;;7.22;1.83;;;30.80;49.30;;;31.71;41.75;101792.06;5148377;28;20089;-71
2022/08/08 09:51:05;;;;;;;3.30;1.58;;;30.60;49.80;;;31.81;41.79;101793.47;5148416;28;20078;-72
2022/08/08 09:53:49;;;;;;;3.90;1.48;;;30.60;50.10;;;31.83;41.82;101790.75;5147997;28;20503;-72
2022/08/08 09:56:22;;;;;;;2.50;1.20;;;30.60;50.10;;;31.79;41.64;101781.88;5147371;28;20038;-70
2022/08/08 09:59:02;;;;;;;2.38;1.45;;;30.60;49.90;;;31.62;41.43;101784.28;5147765;28;20387;-71
2022/08/08 10:01:38;;;;;;;5.78;1.60;;;30.50;49.70;;;31.48;41.86;101776.72;5147690;28;20046;-72
2022/08/08 10:04:15;;;;;;;4.20;1.25;;;30.40;49.90;;;31.51;42.03;101782.03;5130616;28;20047;-71
2022/08/08 10:06:48;;;;;;;3.80;1.52;;;30.30;50.10;;;31.46;41.82;101781.31;5147347;28;20045;-74
2022/08/08 10:09:32;;;;;;;3.05;1.25;;;30.30;50.00;;;31.28;41.07;101773.88;5130224;28;20046;-74
2022/08/08 10:12:06;;;;;;;2.08;1.40;;;30.30;49.40;;;31.23;41.19;101778.53;5130962;28;20057;-75
2022/08/08 10:14:39;;;;;;;1.80;0.95;;;30.20;49.50;;;31.31;41.33;101780.06;5156292;28;20046;-74
2022/08/08 10:17:12;;;;;;;;;;;30.20;49.50;;;31.25;40.93;101782.09;5129954;28;20047;-74
2022/08/08 10:19:44;;;;;;;2.13;1.20;;;30.10;49.20;;;31.20;41.34;101768.75;5147278;28;19926;-74
2022/08/08 10:22:20;;;;;;;3.38;1.48;;;30.10;49.50;;;31.17;41.32;101770.66;5147195;28;20047;-72
2022/08/08 10:25:02;;;;;;;3.53;1.63;;;30.10;49.50;;;31.21;41.48;101766.94;5146934;28;20045;-74
2022/08/08 10:27:42;;;;;;;2.67;1.10;;;30.10;49.60;;;31.27;40.93;101764.06;5146802;28;20507;-72
2022/08/08 10:30:17;;;;;;;4.55;1.42;;;30.10;49.10;;;31.25;40.42;101765.94;5146336;28;20055;-71
2022/08/08 10:32:53;;;;;;;2.28;1.17;;;30.20;49.00;;;31.20;40.77;101762.50;5129719;28;20063;-74
2022/08/08 10:35:28;;;;;;;1.80;1.23;;;30.10;49.20;;;31.22;40.83;101761.50;5147024;28;20047;-75
2022/08/08 10:38:04;;;;;;;2.35;1.20;;;30.10;49.10;;;31.32;41.10;101762.09;5128260;28;20051;-73
2022/08/08 10:40:39;;;;;;;1.80;1.02;;;30.20;49.30;;;31.49;40.63;101754.22;5141722;28;20053;-73
2022/08/08 10:43:11;;;;;;;2.15;1.27;;;30.30;49.20;;;31.53;39.64;101752.31;5146684;28;20133;-72
2022/08/08 10:45:45;;;;;;;1.38;1.02;;;30.40;48.40;;;31.55;38.93;101754.00;5146751;28;20039;-72
2022/08/08 10:48:17;;;;;;;2.47;1.30;;;30.40;47.80;;;31.52;39.58;101747.88;5146647;28;20061;-71
2022/08/08 10:50:50;;;;;;;2.45;1.40;;;30.40;48.00;;;31.52;39.25;101750.56;5138769;28;20420;-74
2022/08/08 10:53:36;;;;;;;2.55;1.00;;;30.40;47.70;;;31.56;38.84;101749.50;5146487;28;20124;-74
2022/08/08 10:56:09;;;;;;;1.25;1.10;;;30.40;47.50;;;31.67;39.05;101752.66;5146449;28;20038;-72
2022/08/08 10:58:41;;;;;;;1.35;1.10;;;30.50;47.50;;;31.70;38.11;101751.69;5129100;28;20054;-73
2022/08/08 11:01:14;;;;;;;1.38;0.80;;;30.50;46.80;;;31.81;38.21;101741.38;5146467;28;20047;-74
2022/08/08 11:03:46;;;;;;;2.67;1.02;;;30.60;47.00;;;31.75;37.10;101739.78;5146382;28;20050;-74
2022/08/08 11:06:18;;;;;;;1.05;0.90;;;30.60;46.00;;;31.52;37.67;101737.09;5128873;28;20050;-73
2022/08/08 11:09:01;;;;;;;4.38;1.33;;;30.40;46.10;;;31.46;38.79;101743.59;5146429;28;20570;-74
2022/08/08 11:11:40;;;;;;;1.60;1.10;;;30.40;47.10;;;31.40;38.87;101735.72;5128883;28;20051;-74
2022/08/08 11:14:14;;;;;;;2.03;1.17;;;30.40;47.30;;;31.25;38.71;101729.09;5128909;28;20053;-74
2022/08/08 11:16:47;;;;;;;1.20;1.10;;;30.30;47.00;;;31.20;38.70;101730.19;5145922;28;20428;-73
2022/08/08 11:19:20;;;;;;;1.50;0.90;;;30.20;47.20;;;31.24;38.90;101726.47;5146242;28;20171;-73
2022/08/08 11:21:54;;;;;;;1.13;0.95;;;30.20;47.10;;;31.37;39.13;101727.78;5128520;28;20137;-73